Latest Coastal Weather Observations for Dunalley

IDT60701

Issued at 3:12 pm EST Thursday 27 April 2017 (issued every 10 minutes, with the page automatically refreshed every 10 minutes)

About coastal observations | Map of coastal stations | Coastal observations for TAS | Marine services | Other Formats
Station Details ID: 094254 Name: DUNALLEY (STROUD POINT) Lat: -42.90 Lon: 147.79 Height: 12.43 m
Data from the previous 72 hours. | See also: Recent months at Dunalley
Date/Time
EST
Temp
°C
Wind Pressure Rain since
9am
mm
Weather Cloud Vis
km
Sea
Height
m
Swell
Dir  Spd
kts
Gust
kts
hPa Trend Height
m
Period
s
Dir
27/03:00pm 13.1 W 10 13 1015.9 - 0.0 - - - - - - -
27/02:30pm 12.9 WNW 10 13 1015.8 - 0.0 - - - - - - -
27/02:00pm 13.2 W 10 13 1015.8 - 0.0 - - - - - - -
27/01:30pm 12.9 W 10 14 1015.9 - 0.0 - - - - - - -
27/01:00pm 12.4 W 15 19 1016.7 - 0.0 - - - - - - -
27/12:30pm 12.3 W 12 17 1017.5 - 0.0 - - - - - - -
27/12:00pm 11.8 W 12 15 1017.9 - 0.0 - - - - - - -
27/11:30am 11.8 W 12 17 1018.2 - 0.0 - - - - - - -
27/11:00am 11.3 W 10 15 1018.6 - 0.0 - - - - - - -
27/10:30am 11.2 W 12 16 1018.8 - 0.0 - - - - - - -
27/10:00am 10.2 W 11 15 1018.9 - 0.0 - - - - - - -
27/09:30am 9.6 NW 7 10 1018.8 - 0.0 - - - - - - -
27/09:00am 8.5 WNW 9 12 1018.9 - 2.6 - - - - - - -
27/08:30am 7.8 NW 8 10 1018.9 - 2.6 - - - - - - -
27/08:00am 7.1 WNW 9 12 1018.8 - 2.6 - - - - - - -
27/07:30am 5.9 WNW 8 11 1018.7 - 2.6 - - - - - - -
27/07:00am 5.8 NW 8 10 1018.4 - 2.6 - - - - - - -
27/06:30am 6.1 NW 9 11 1018.5 - 2.6 - - - - - - -
27/06:00am 6.3 NW 8 11 1018.4 - 2.6 - - - - - - -
27/05:30am 7.1 WNW 9 13 1018.4 - 2.6 - - - - - - -
27/05:00am 7.2 WNW 9 13 1018.3 - 2.6 - - - - - - -
27/04:30am 7.3 WNW 9 11 1018.0 - 2.6 - - - - - - -
27/04:00am 7.0 WNW 11 14 1017.6 - 2.6 - - - - - - -
27/03:30am 6.9 WNW 11 16 1017.3 - 2.6 - - - - - - -
27/03:00am 8.3 WSW 13 18 1017.4 - 2.6 - - - - - - -
27/02:30am 9.0 WSW 15 19 1017.8 - 2.6 - - - - - - -
27/02:00am 9.3 WSW 17 19 1017.6 - 2.6 - - - - - - -
27/01:30am 9.5 WSW 16 20 1017.5 - 2.6 - - - - - - -
27/01:00am 9.2 WSW 21 24 1017.3 - 2.6 - - - - - - -
27/12:30am 9.0 WSW 16 21 1017.1 - 2.6 - - - - - - -
27/12:00am 9.1 WSW 17 22 1017.0 - 2.6 Recent precip. - - - - - -
 
Date/Time
EST
Temp
°C
Wind Pressure Rain since
9am
mm
Weather Cloud Vis
km
Sea
Height
m
Swell
Dir  Spd
kts
Gust
kts
hPa Trend Height
m
Period
s
Dir
26/11:30pm 8.7 WSW 14 18 1016.8 - 2.6 - - - - - - -
26/11:08pm 10.1 SSW 15 27 1016.6 - 2.2 - - - - - - -
26/11:00pm 9.5 SSW 13 16 1016.5 - 2.2 - - - - - - -
26/10:30pm 9.0 SSW 21 26 1016.7 - 2.2 - - - - - - -
26/10:00pm 9.1 SSW 12 20 1016.5 - 2.2 - - - - - - -
26/09:30pm 9.9 SSW 20 26 1016.3 - 2.0 - - - - - - -
26/09:00pm 9.6 SW 17 21 1016.0 - 2.0 - - - - - - -
26/08:30pm 9.9 SSW 15 21 1015.7 - 2.0 - - - - - - -
26/08:00pm 10.0 SSW 19 27 1015.2 - 2.0 - - - - - - -
26/07:47pm 10.6 SSW 15 29 1015.0 - 2.0 - - - - - - -
26/07:30pm 10.1 SSW 11 15 1014.8 - 2.0 - - - - - - -
26/07:00pm 9.5 S 9 14 1014.4 - 2.0 - - - - - - -
26/06:30pm 10.1 SSW 16 21 1013.8 - 2.0 - - - - - - -
26/06:11pm 9.6 S 20 30 1013.2 - 1.8 - - - - - - -
26/06:00pm 9.3 SSW 20 28 1013.1 - 1.8 Rain - - - - - -
26/05:35pm 9.3 SW 16 26 1012.8 - 1.6 - - - - - - -
26/05:30pm 9.2 SSW 15 20 1012.9 - 1.6 - - - - - - -
26/05:11pm 8.3 SW 18 29 1012.7 - 1.4 - - - - - - -
26/05:00pm 8.8 SW 24 29 1012.2 - 0.8 - - - - - - -
26/04:44pm 10.2 SSW 15 27 1011.9 - 0.2 - - - - - - -
26/04:30pm 10.1 SSW 20 27 1011.5 - 0.2 - - - - - - -
26/04:23pm 9.7 SSW 25 35 1011.4 - 0.2 - - - - - - -
26/04:16pm 10.3 SSW 23 35 1011.0 - 0.2 - - - - - - -
26/04:13pm 11.1 SSW 20 33 1010.9 - 0.2 - - - - - - -
26/04:00pm 10.9 SSW 21 27 1010.8 - 0.2 - - - - - - -
26/03:30pm 11.1 SSW 20 27 1010.3 - 0.2 - - - - - - -
26/03:02pm 9.4 SW 24 34 1010.2 - 0.0 - - - - - - -
26/03:00pm 9.7 SW 25 34 1010.2 - 0.0 - - - - - - -
26/02:30pm 11.2 SSW 24 30 1009.3 - 0.0 - - - - - - -
26/02:00pm 10.5 SW 22 33 1008.8 - 0.0 - - - - - - -
26/01:42pm 11.3 SW 20 30 1008.5 - 0.0 - - - - - - -
26/01:30pm 11.2 SW 20 27 1008.7 - 0.0 - - - - - - -
26/01:00pm 11.4 SW 26 32 1008.2 - 0.0 - - - - - - -
26/12:30pm 11.3 SW 21 26 1008.1 - 0.0 - - - - - - -
26/12:00pm 11.8 SW 21 26 1007.7 - 0.0 - - - - - - -
26/11:30am 11.2 SW 22 26 1007.6 - 0.0 - - - - - - -
26/11:04am 9.8 SW 18 29 1007.7 - 0.0 - - - - - - -
26/11:00am 10.1 SW 21 29 1007.7 - 0.0 - - - - - - -
26/10:30am 10.9 SW 25 29 1007.1 - 0.0 - - - - - - -
26/10:00am 10.3 SW 22 32 1007.1 - 0.0 - - - - - - -
26/09:30am 10.6 SW 21 26 1006.7 - 0.0 - - - - - - -
26/09:00am 10.0 SW 21 30 1006.3 - 1.6 - - - - - - -
26/08:30am 10.7 SW 22 29 1005.6 - 1.6 - - - - - - -
26/08:00am 9.9 SW 19 23 1005.3 - 1.6 - - - - - - -
26/07:30am 10.0 SW 22 26 1004.9 - 1.6 - - - - - - -
26/07:04am 9.9 SW 22 37 1004.2 - 1.4 - - - - - - -
26/07:02am 10.7 SW 20 33 1004.2 - 1.4 - - - - - - -
26/07:00am 10.3 SW 19 27 1004.1 - 1.4 - - - - - - -
26/06:30am 9.9 SW 19 23 1003.6 - 1.4 - - - - - - -
26/06:00am 9.7 SW 22 27 1003.1 - 1.2 Rain - - - - - -
26/05:30am 10.1 SW 19 27 1002.5 - 0.6 - - - - - - -
26/05:00am 10.4 SW 22 26 1001.8 - 0.2 - - - - - - -
26/04:30am 11.0 SW 17 23 1001.1 - 0.0 - - - - - - -
26/04:00am 11.5 SW 15 18 1000.6 - 0.0 - - - - - - -
26/03:30am 11.4 SW 15 18 1000.3 - 0.0 - - - - - - -
26/03:00am 11.6 SW 18 23 999.8 - 0.0 - - - - - - -
26/02:30am 11.6 SSW 17 20 999.8 - 0.0 - - - - - - -
26/02:10am 12.1 SW 19 25 999.3 - 0.0 - - - - - - -
26/02:00am 12.2 W 11 15 999.3 - 0.0 - - - - - - -
26/01:30am 12.6 W 8 11 998.9 - 0.0 - - - - - - -
26/01:00am 12.7 WNW 9 14 998.7 - 0.0 - - - - - - -
26/12:30am 12.1 WNW 8 11 998.5 - 0.0 - - - - - - -
26/12:00am 11.2 WNW 5 7 998.4 - 0.0 - - - - - - -
 
Date/Time
EST
Temp
°C
Wind Pressure Rain since
9am
mm
Weather Cloud Vis
km
Sea
Height
m
Swell
Dir  Spd
kts
Gust
kts
hPa Trend Height
m
Period
s
Dir
25/11:30pm 11.8 NW 7 11 998.5 - 0.0 - - - - - - -
25/11:00pm 12.0 NW 7 10 998.6 - 0.0 - - - - - - -
25/10:30pm 12.7 NW 11 15 998.7 - 0.0 - - - - - - -
25/10:00pm 13.0 NNW 8 12 998.8 - 0.0 - - - - - - -
25/09:30pm 13.5 N 9 12 999.0 - 0.0 - - - - - - -
25/09:00pm 12.9 NE 5 7 999.0 - 0.0 - - - - - - -
25/08:30pm 13.6 NE 8 11 999.0 - 0.0 - - - - - - -
25/08:00pm 13.4 NE 6 9 999.2 - 0.0 - - - - - - -
25/07:30pm 12.2 NE 4 7 999.4 - 0.0 - - - - - - -
25/07:00pm 12.0 NE 4 5 999.5 - 0.0 - - - - - - -
25/06:30pm 13.5 NE 3 4 999.5 - 0.0 - - - - - - -
25/06:00pm 13.9 NE 4 5 999.4 - 0.0 - - - - - - -
25/05:30pm 14.5 NE 3 4 999.5 - 0.0 - - - - - - -
25/05:00pm 14.9 NE 1 3 999.4 - 0.0 - - - - - - -
25/04:30pm 15.5 NE 1 1 999.4 - 0.0 - - - - - - -
25/04:00pm 15.6 NE 3 4 999.6 - 0.0 - - - - - - -
25/03:30pm 16.4 NE 2 3 999.7 - 0.0 - - - - - - -
25/03:00pm 16.4 NE 4 5 999.9 - 0.0 - - - - - - -
25/02:30pm 15.6 NE 6 7 1000.3 - 0.0 - - - - - - -
25/02:00pm 15.4 NE 4 6 1000.5 - 0.0 - - - - - - -
25/01:30pm 15.9 NE 5 5 1000.9 - 0.0 - - - - - - -
25/01:00pm 15.7 NE 6 7 1001.5 - 0.0 - - - - - - -
25/12:30pm 15.8 NE 6 7 1002.0 - 0.0 - - - - - - -
25/12:00pm 15.5 NE 3 4 1002.7 - 0.0 - - - - - - -
25/11:30am 15.1 NE 5 7 1003.2 - 0.0 - - - - - - -
25/11:00am 15.0 NE 4 5 1003.6 - 0.0 - - - - - - -
25/10:30am 14.8 NE 3 4 1004.1 - 0.0 - - - - - - -
25/10:00am 14.6 NE 2 2 1004.7 - 0.0 - - - - - - -
25/09:30am 14.1 CALM 0 0 1005.2 - 0.0 - - - - - - -
25/09:00am 13.9 CALM 0 0 1005.6 - 0.8 - - - - - - -
25/08:30am 13.9 CALM 0 0 1005.8 - 0.8 - - - - - - -
25/08:00am 13.5 CALM 0 0 1005.9 - 0.8 - - - - - - -
25/07:30am 13.3 CALM 0 0 1005.9 - 0.8 - - - - - - -
25/07:00am 13.2 CALM 0 0 1006.0 - 0.8 - - - - - - -
25/06:30am 13.3 CALM 0 0 1005.8 - 0.8 - - - - - - -
25/06:00am 13.5 CALM 0 0 1006.3 - 0.8 Recent precip. - - - - - -
25/05:30am 13.4 CALM 0 0 1006.6 - 0.6 - - - - - - -
25/05:00am 13.5 CALM 0 0 1006.9 - 0.6 - - - - - - -
25/04:30am 13.4 CALM 0 0 1007.1 - 0.2 - - - - - - -
25/04:00am 13.6 NE 2 3 1007.4 - 0.2 - - - - - - -
25/03:30am 13.5 CALM 0 0 1007.6 - 0.2 - - - - - - -
25/03:00am 13.6 CALM 0 0 1008.2 - 0.2 - - - - - - -
25/02:30am 13.5 NE 3 4 1008.3 - 0.2 - - - - - - -
25/02:00am 13.7 NE 3 4 1008.9 - 0.2 - - - - - - -
25/01:30am 13.4 NE 3 4 1009.2 - 0.2 - - - - - - -
25/01:00am 14.0 NE 1 2 1009.6 - 0.2 - - - - - - -
25/12:30am 13.6 NE 3 3 1010.4 - 0.2 - - - - - - -
25/12:00am 14.3 NE 3 4 1010.5 - 0.2 - - - - - - -
 
Date/Time
EST
Temp
°C
Wind Pressure Rain since
9am
mm
Weather Cloud Vis
km
Sea
Height
m
Swell
Dir  Spd
kts
Gust
kts
hPa Trend Height
m
Period
s
Dir
24/11:30pm 14.6 CALM 0 2 1011.1 - 0.2 - - - - - - -
24/11:00pm 14.6 NE 3 4 1011.6 - 0.2 - - - - - - -
24/10:30pm 14.9 NE 2 3 1011.8 - 0.2 - - - - - - -
24/10:00pm 14.9 NE 3 5 1012.2 - 0.2 - - - - - - -
24/09:30pm 14.4 NE 2 3 1012.4 - 0.0 - - - - - - -
24/09:00pm 14.5 NE 3 4 1012.4 - 0.0 - - - - - - -
24/08:30pm 14.8 NE 2 4 1012.8 - 0.0 - - - - - - -
24/08:00pm 15.6 NE 6 8 1012.9 - 0.0 - - - - - - -
24/07:30pm 15.6 NE 5 6 1013.2 - 0.0 - - - - - - -
24/07:00pm 15.9 NE 7 9 1013.1 - 0.0 - - - - - - -
24/06:30pm 15.8 NE 6 8 1013.5 - 0.0 - - - - - - -
24/06:00pm 15.9 ENE 8 10 1013.5 - 0.0 - - - - - - -
24/05:30pm 16.2 NE 7 8 1013.6 - 0.0 - - - - - - -
24/05:00pm 16.4 NE 10 13 1013.6 - 0.0 - - - - - - -
24/04:30pm 16.4 NNE 11 16 1013.5 - 0.0 - - - - - - -
24/04:00pm 16.6 NNE 13 17 1013.8 - 0.0 - - - - - - -
24/03:30pm 17.1 NE 12 15 1014.0 - 0.0 - - - - - - -

Other Formats:

Comma delimited format used in spreadsheet applications
http://www.bom.gov.au/fwo/IDT60701/IDT60701.94951.axf

JavaScript Object Notation format (JSON) in row-major order
http://www.bom.gov.au/fwo/IDT60701/IDT60701.94951.json